Time;durP1;ratioP1;P1;durP2;ratioP2;P2;SDS_P1;SDS_P2;PMS_P1;PMS_P2;Temp;Humidity;BMP_temperature;BMP_pressure;BME280_temperature;BME280_humidity;BME280_pressure;Samples;Min_cycle;Max_cycle;Signal;HPM_P1;HPM_P2
2023/05/24 00:01:58;;;;;;;8.50;5.23;;;;;;;18.67;44.87;99810.59;4269515;28;20226;-68
2023/05/24 00:04:28;;;;;;;9.80;4.80;;;;;;;18.62;44.78;99808.50;4265838;28;22415;-68
2023/05/24 00:06:56;;;;;;;9.47;5.00;;;;;;;18.67;45.05;99805.13;4264258;28;20270;-69
2023/05/24 00:09:23;;;;;;;11.87;5.77;;;;;;;18.65;45.14;99807.25;4269771;28;20656;-68
2023/05/24 00:11:50;;;;;;;10.67;4.87;;;;;;;18.62;44.95;99804.94;4247760;28;20225;-69
2023/05/24 00:14:16;;;;;;;10.17;4.40;;;;;;;18.60;44.94;99802.41;4267238;28;20259;-69
2023/05/24 00:16:45;;;;;;;13.80;5.00;;;;;;;18.62;44.95;99803.03;4266011;28;20238;-67
2023/05/24 00:19:17;;;;;;;12.20;4.80;;;;;;;18.60;44.95;99794.19;4260305;28;20242;-69
2023/05/24 00:21:44;;;;;;;11.33;5.20;;;;;;;18.58;44.97;99793.56;4266822;28;20310;-69
2023/05/24 00:24:11;;;;;;;8.87;4.67;;;;;;;18.58;44.98;99799.03;4266892;28;20237;-71
2023/05/24 00:26:38;;;;;;;10.63;5.10;;;;;;;18.58;44.75;99793.56;4266615;28;20230;-68
2023/05/24 00:29:04;;;;;;;8.73;4.50;;;;;;;18.57;44.80;99791.03;4251792;28;20886;-70
2023/05/24 00:31:31;;;;;;;15.50;4.80;;;;;;;18.59;44.60;99794.38;4268675;28;20234;-69
2023/05/24 00:33:58;;;;;;;19.10;5.03;;;;;;;18.63;44.15;99793.75;4267698;28;20341;-69
2023/05/24 00:36:24;;;;;;;10.63;4.53;;;;;;;18.69;43.59;99783.81;4263205;28;22371;-69
2023/05/24 00:38:52;;;;;;;12.67;4.37;;;;;;;18.72;43.71;99788.03;4259209;28;20234;-71
2023/05/24 00:41:19;;;;;;;11.23;4.50;;;;;;;18.66;43.68;99776.00;4256715;28;20310;-68
2023/05/24 00:43:45;;;;;;;12.60;4.43;;;;;;;18.69;43.53;99781.06;4268712;28;22524;-69
2023/05/24 00:46:15;;;;;;;12.97;5.00;;;;;;;18.66;43.81;99796.06;4261152;28;22064;-68
2023/05/24 00:48:43;;;;;;;10.70;4.83;;;;;;;18.65;43.75;99779.84;4258960;28;21245;-69
2023/05/24 00:51:11;;;;;;;14.83;5.30;;;;;;;18.68;43.50;99780.25;4272599;28;20231;-69
2023/05/24 00:53:39;;;;;;;11.27;4.40;;;;;;;18.64;43.81;99787.22;4265782;28;20230;-70
2023/05/24 00:56:06;;;;;;;7.83;4.60;;;;;;;18.65;43.31;99782.59;4262447;28;20249;-69
2023/05/24 00:58:33;;;;;;;7.47;4.40;;;;;;;18.64;43.43;99783.63;4245914;28;22650;-67
2023/05/24 01:01:01;;;;;;;11.83;4.83;;;;;;;18.67;43.37;99781.31;4246280;28;20618;-69
2023/05/24 01:03:28;;;;;;;10.17;5.00;;;;;;;18.55;43.54;99776.69;4266564;28;20230;-68
2023/05/24 01:05:56;;;;;;;9.40;4.13;;;;;;;18.50;43.84;99778.22;4269437;28;20403;-69
2023/05/24 01:08:44;;;;;;;9.37;4.80;;;;;;;18.49;43.60;99778.41;4260859;28;20276;-69
2023/05/24 01:11:22;;;;;;;13.40;4.57;;;;;;;18.44;44.04;99787.25;4264973;28;20256;-68
2023/05/24 01:13:57;;;;;;;10.07;4.93;;;;;;;18.41;44.04;99776.75;4272466;28;21720;-68
2023/05/24 01:16:31;;;;;;;6.43;4.20;;;;;;;18.45;43.88;99777.16;4260846;28;20296;-69
2023/05/24 01:19:01;;;;;;;8.83;4.90;;;;;;;18.37;43.95;99776.34;4255096;28;20289;-68
2023/05/24 01:21:47;;;;;;;10.03;4.43;;;;;;;18.30;44.01;99783.75;4252508;28;20935;-70
2023/05/24 01:24:17;;;;;;;10.10;4.70;;;;;;;18.26;44.32;99787.94;4261325;28;21883;-68
2023/05/24 01:27:06;;;;;;;7.07;4.60;;;;;;;18.30;44.09;99782.88;4271324;28;20252;-69
2023/05/24 01:29:33;;;;;;;13.07;4.83;;;;;;;18.24;44.29;99784.56;4257539;28;20257;-68
2023/05/24 01:32:01;;;;;;;9.20;4.50;;;;;;;18.23;44.49;99788.41;4272133;28;20345;-68
2023/05/24 01:34:28;;;;;;;8.10;4.50;;;;;;;18.23;44.33;99785.66;4260003;28;20236;-69
2023/05/24 01:36:55;;;;;;;8.97;4.80;;;;;;;18.18;44.34;99785.44;4263168;28;20608;-67
2023/05/24 01:39:24;;;;;;;6.43;4.40;;;;;;;18.16;44.49;99793.03;4274937;28;20283;-71
2023/05/24 01:42:02;;;;;;;10.53;4.53;;;;;;;18.11;44.77;99790.94;4265453;28;20233;-68
2023/05/24 01:44:34;;;;;;;10.27;4.90;;;;;;;18.14;44.59;99789.66;4270108;28;20289;-68
2023/05/24 01:47:07;;;;;;;10.33;4.77;;;;;;;18.12;44.60;99789.88;4262845;28;20283;-68
2023/05/24 01:49:37;;;;;;;9.97;5.00;;;;;;;18.07;44.78;99789.66;4265957;28;20263;-69
2023/05/24 01:52:07;;;;;;;9.97;5.00;;;;;;;18.02;44.99;99786.72;4256189;28;20256;-68
2023/05/24 01:54:37;;;;;;;9.23;4.77;;;;;;;18.03;44.96;99791.16;4259654;28;20229;-69
2023/05/24 01:57:08;;;;;;;13.50;4.50;;;;;;;18.04;44.99;99799.16;4261391;28;20309;-69
2023/05/24 01:59:35;;;;;;;11.17;4.87;;;;;;;18.00;44.85;99794.31;4265378;28;20263;-67
2023/05/24 02:02:01;;;;;;;9.33;5.07;;;;;;;17.99;44.76;99798.09;4263182;28;21763;-66
2023/05/24 02:04:28;;;;;;;8.43;4.67;;;;;;;17.95;44.88;99794.94;4265539;28;20661;-70
2023/05/24 02:06:55;;;;;;;11.20;4.47;;;;;;;17.96;44.95;99796.63;4261382;28;20635;-69
2023/05/24 02:09:21;;;;;;;15.13;5.90;;;;;;;17.94;45.39;99798.69;4267018;28;20352;-68
2023/05/24 02:11:48;;;;;;;9.67;4.53;;;;;;;17.87;45.08;99798.72;4270023;28;20233;-68
2023/05/24 02:14:16;;;;;;;8.63;4.77;;;;;;;17.87;44.97;99793.25;4269302;28;20244;-69
2023/05/24 02:16:45;;;;;;;11.60;5.30;;;;;;;17.93;44.90;99791.56;4255886;28;20307;-68
2023/05/24 02:19:13;;;;;;;9.87;4.77;;;;;;;17.92;44.75;99791.75;4270948;28;20244;-67
2023/05/24 02:21:40;;;;;;;9.70;4.57;;;;;;;17.86;45.10;99791.56;4270316;28;21235;-69
2023/05/24 02:24:06;;;;;;;8.77;4.63;;;;;;;17.82;45.10;99793.03;4261849;28;20272;-67
2023/05/24 02:26:33;;;;;;;6.30;4.70;;;;;;;17.90;44.65;99794.72;4264640;28;20233;-68
2023/05/24 02:28:59;;;;;;;12.23;4.93;;;;;;;17.81;44.77;99798.72;4275706;28;20283;-68
2023/05/24 02:31:27;;;;;;;13.23;4.27;;;;;;;17.76;44.78;99784.81;4275594;28;21122;-68
2023/05/24 02:33:55;;;;;;;8.53;4.50;;;;;;;17.79;44.75;99798.94;4257585;28;20241;-68
2023/05/24 02:36:22;;;;;;;12.47;4.53;;;;;;;17.79;44.83;99796.19;4270535;28;22550;-67
2023/05/24 02:38:49;;;;;;;10.30;4.70;;;;;;;17.77;44.93;99792.81;4273882;28;21119;-69
2023/05/24 02:41:17;;;;;;;8.77;4.77;;;;;;;17.76;44.96;99793.03;4262433;28;20233;-69
2023/05/24 02:43:44;;;;;;;12.63;5.20;;;;;;;17.81;44.77;99795.97;4266485;28;21620;-70
2023/05/24 02:46:12;;;;;;;9.27;4.57;;;;;;;17.77;44.65;99801.03;4271379;28;20245;-68
2023/05/24 02:48:39;;;;;;;12.10;5.13;;;;;;;17.75;44.81;99794.91;4271459;28;20234;-67
2023/05/24 02:51:05;;;;;;;12.00;4.53;;;;;;;17.73;44.55;99795.13;4268602;28;20853;-69
2023/05/24 02:53:32;;;;;;;12.07;4.57;;;;;;;17.76;44.42;99793.88;4270968;28;20280;-69
2023/05/24 02:55:59;;;;;;;12.30;4.77;;;;;;;17.70;44.65;99802.91;4270530;28;20279;-71
2023/05/24 02:58:29;;;;;;;11.70;4.73;;;;;;;17.74;44.92;99799.56;4272149;28;20237;-68
2023/05/24 03:00:55;;;;;;;10.40;4.57;;;;;;;17.68;45.45;99797.66;4256245;28;20417;-69
2023/05/24 03:03:22;;;;;;;8.70;5.33;;;;;;;17.62;45.82;99806.72;4272712;28;20463;-68
2023/05/24 03:05:48;;;;;;;9.87;4.77;;;;;;;17.48;46.45;99807.75;4272575;28;20284;-68
2023/05/24 03:08:15;;;;;;;14.70;4.87;;;;;;;17.56;46.47;99811.13;4263176;28;20245;-69
2023/05/24 03:10:42;;;;;;;9.67;4.87;;;;;;;17.51;46.59;99807.31;4272014;28;21806;-68
2023/05/24 03:13:09;;;;;;;9.53;4.67;;;;;;;17.52;46.77;99814.50;4268375;28;20222;-70
2023/05/24 03:15:36;;;;;;;12.07;5.03;;;;;;;17.49;47.01;99813.00;4270735;28;20234;-68
2023/05/24 03:18:02;;;;;;;11.90;4.90;;;;;;;17.41;47.27;99813.22;4280436;28;24439;-69
2023/05/24 03:20:29;;;;;;;15.60;5.00;;;;;;;17.32;47.41;99806.25;4265115;28;20260;-69
2023/05/24 03:22:56;;;;;;;8.13;4.53;;;;;;;17.34;47.56;99813.19;4268132;28;21783;-69
2023/05/24 03:25:23;;;;;;;9.77;4.50;;;;;;;17.31;47.54;99810.88;4279565;28;20590;-69
2023/05/24 03:27:49;;;;;;;10.63;4.70;;;;;;;17.33;47.94;99813.41;4276661;28;21636;-67
2023/05/24 03:30:16;;;;;;;14.37;5.57;;;;;;;17.31;47.86;99819.09;4267645;28;20229;-68
2023/05/24 03:32:42;;;;;;;13.50;4.50;;;;;;;17.39;47.60;99823.50;4245959;28;20229;-68
2023/05/24 03:35:10;;;;;;;10.90;4.87;;;;;;;17.34;48.01;99818.66;4290319;28;20238;-69
2023/05/24 03:37:37;;;;;;;10.17;4.93;;;;;;;17.48;47.75;99821.44;4276714;28;20242;-69
2023/05/24 03:40:05;;;;;;;9.27;4.63;;;;;;;17.56;47.21;99821.25;4262131;28;20230;-71
2023/05/24 03:42:32;;;;;;;10.97;4.80;;;;;;;17.62;47.62;99822.28;4271004;28;20225;-69
2023/05/24 03:44:58;;;;;;;8.63;4.70;;;;;;;17.64;47.74;99821.03;4267715;28;20319;-69
2023/05/24 03:47:25;;;;;;;13.83;4.80;;;;;;;17.53;47.01;99819.75;4272532;28;20230;-70
2023/05/24 03:49:52;;;;;;;8.63;4.93;;;;;;;17.57;46.49;99828.38;4259591;28;20240;-68
2023/05/24 03:52:18;;;;;;;11.00;4.63;;;;;;;17.70;46.35;99836.63;4277203;28;20858;-70
2023/05/24 03:54:45;;;;;;;10.90;4.33;;;;;;;17.78;46.41;99840.22;4246693;28;20330;-68
2023/05/24 03:57:11;;;;;;;9.27;4.90;;;;;;;17.89;46.32;99834.97;4269147;28;20237;-68
2023/05/24 03:59:38;;;;;;;11.07;5.27;;;;;;;17.91;46.35;99829.25;4269602;28;20318;-70
2023/05/24 04:02:06;;;;;;;13.77;5.50;;;;;;;17.81;46.15;99837.91;4270415;28;21113;-68
2023/05/24 04:04:33;;;;;;;8.33;4.23;;;;;;;17.90;46.39;99827.56;4257641;28;20248;-67
2023/05/24 04:07:00;;;;;;;12.57;4.97;;;;;;;18.05;47.48;99838.34;4254022;28;21205;-67
2023/05/24 04:09:26;;;;;;;8.17;4.57;;;;;;;18.11;46.81;99840.25;4269446;28;20299;-69
2023/05/24 04:11:53;;;;;;;16.50;5.30;;;;;;;18.15;47.08;99836.00;4257061;28;20238;-68
2023/05/24 04:14:20;;;;;;;11.80;4.90;;;;;;;18.24;47.10;99849.50;4278549;28;20621;-69
2023/05/24 04:16:47;;;;;;;10.03;5.13;;;;;;;18.14;48.73;99849.94;4275618;28;20874;-70
2023/05/24 04:19:13;;;;;;;10.57;5.23;;;;;;;17.84;47.78;99855.78;4267006;28;20221;-68
2023/05/24 04:21:40;;;;;;;14.00;4.43;;;;;;;17.95;46.85;99855.19;4264076;28;20225;-67
2023/05/24 04:24:07;;;;;;;12.73;4.90;;;;;;;18.03;45.98;99849.50;4256377;28;20267;-68
2023/05/24 04:26:34;;;;;;;11.53;4.93;;;;;;;18.08;46.39;99856.25;4273620;28;20294;-67
2023/05/24 04:29:00;;;;;;;17.37;5.30;;;;;;;17.97;45.18;99857.75;4256534;28;20229;-71
2023/05/24 04:31:29;;;;;;;10.63;4.23;;;;;;;17.97;44.73;99844.03;4273699;28;20244;-67
2023/05/24 04:33:57;;;;;;;11.40;4.90;;;;;;;18.12;45.17;99854.75;4261083;28;20657;-70
2023/05/24 04:36:25;;;;;;;12.37;4.70;;;;;;;18.18;44.78;99853.91;4266182;28;20335;-70
2023/05/24 04:38:56;;;;;;;15.93;5.30;;;;;;;18.14;45.17;99867.19;4279968;28;20404;-68
2023/05/24 04:41:23;;;;;;;12.23;4.80;;;;;;;18.18;45.11;99863.00;4285233;28;20410;-69
2023/05/24 04:43:49;;;;;;;16.70;5.10;;;;;;;18.44;44.97;99858.53;4267727;28;20234;-68
2023/05/24 04:46:16;;;;;;;13.83;4.50;;;;;;;18.43;44.88;99858.75;4277238;28;21799;-68
2023/05/24 04:48:43;;;;;;;9.13;4.70;;;;;;;18.42;44.44;99859.78;4278926;28;20229;-68
2023/05/24 04:51:10;;;;;;;13.53;4.67;;;;;;;18.45;44.49;99860.22;4272076;28;20241;-67
2023/05/24 04:53:37;;;;;;;12.33;4.23;;;;;;;18.36;45.18;99862.34;4269003;28;21156;-67
2023/05/24 04:56:04;;;;;;;13.17;5.23;;;;;;;18.33;44.96;99870.97;4281126;28;20370;-68
2023/05/24 04:58:30;;;;;;;19.80;5.63;;;;;;;18.63;44.52;99875.16;4278205;28;20263;-71
2023/05/24 05:00:57;;;;;;;11.53;4.73;;;;;;;18.52;44.07;99868.44;4260614;28;21262;-67
2023/05/24 05:03:23;;;;;;;10.37;5.00;;;;;;;18.39;44.60;99872.03;4274274;28;20291;-67
2023/05/24 05:05:50;;;;;;;9.40;4.90;;;;;;;18.36;45.03;99878.78;4281453;28;20243;-65
2023/05/24 05:08:17;;;;;;;7.10;4.33;;;;;;;18.49;44.26;99879.81;4274956;28;20243;-69
2023/05/24 05:10:43;;;;;;;13.70;4.97;;;;;;;18.65;44.00;99873.88;4263390;28;20225;-66
2023/05/24 05:13:10;;;;;;;11.40;5.30;;;;;;;18.78;44.22;99883.97;4263726;28;20229;-65
2023/05/24 05:15:36;;;;;;;14.77;5.47;;;;;;;18.93;43.86;99880.16;4280766;28;20243;-66
2023/05/24 05:18:03;;;;;;;12.40;4.90;;;;;;;19.05;43.97;99883.91;4269453;28;21634;-67
2023/05/24 05:20:30;;;;;;;12.93;4.90;;;;;;;19.05;43.35;99883.91;4281161;28;20230;-66
2023/05/24 05:22:56;;;;;;;12.10;4.77;;;;;;;18.99;43.56;99893.00;4282070;28;20250;-66
2023/05/24 05:25:23;;;;;;;13.60;5.07;;;;;;;18.65;44.62;99895.81;4278714;28;20238;-68
2023/05/24 05:27:50;;;;;;;16.47;5.27;;;;;;;18.86;44.65;99902.06;4273913;28;20408;-70
2023/05/24 05:30:16;;;;;;;13.93;4.73;;;;;;;18.90;44.50;99905.22;4277325;28;20279;-69
2023/05/24 05:32:43;;;;;;;16.90;5.07;;;;;;;19.05;44.72;99902.28;4273691;28;21255;-69
2023/05/24 05:35:10;;;;;;;9.40;4.37;;;;;;;18.98;44.32;99894.91;4270285;28;20228;-66
2023/05/24 05:37:36;;;;;;;13.23;4.70;;;;;;;19.12;44.34;99892.94;4272548;28;20246;-68
2023/05/24 05:40:03;;;;;;;9.70;4.80;;;;;;;19.37;44.21;99905.09;4277622;28;25182;-67
2023/05/24 05:42:30;;;;;;;14.03;5.33;;;;;;;19.80;43.67;99905.25;4277791;28;20312;-68
2023/05/24 05:44:56;;;;;;;16.23;5.30;;;;;;;20.71;42.38;99904.94;4278396;28;20230;-67
2023/05/24 05:47:23;;;;;;;16.27;5.10;;;;;;;21.80;40.32;99911.69;4276129;28;20238;-69
2023/05/24 05:49:49;;;;;;;10.87;4.93;;;;;;;21.89;38.95;99914.97;4267089;28;20234;-67
2023/05/24 05:52:16;;;;;;;13.47;5.20;;;;;;;22.03;38.75;99907.31;4260616;28;21796;-70
2023/05/24 05:54:46;;;;;;;13.53;5.13;;;;;;;21.28;39.72;99909.41;4272526;28;20307;-68
2023/05/24 05:57:12;;;;;;;10.77;4.67;;;;;;;21.51;39.00;99916.94;4274633;28;20229;-70
2023/05/24 05:59:39;;;;;;;13.13;4.93;;;;;;;22.87;37.05;99910.97;4271067;28;20276;-68
2023/05/24 06:02:06;;;;;;;11.47;4.90;;;;;;;23.14;36.29;99916.00;4282389;28;20656;-69
2023/05/24 06:04:33;;;;;;;8.90;4.63;;;;;;;23.46;35.13;99918.31;4272641;28;20311;-69
2023/05/24 06:07:00;;;;;;;10.70;5.13;;;;;;;24.08;34.40;99925.00;4264786;28;20244;-67
2023/05/24 06:09:26;;;;;;;13.50;5.07;;;;;;;23.95;35.36;99924.25;4283652;28;21024;-68
2023/05/24 06:11:53;;;;;;;17.33;5.30;;;;;;;22.85;36.85;99924.19;4285513;28;20233;-68
2023/05/24 06:14:23;;;;;;;15.73;5.00;;;;;;;23.15;36.88;99914.91;4303127;28;21587;-70
2023/05/24 06:16:53;;;;;;;18.07;5.10;;;;;;;23.76;35.14;99925.50;4266974;28;20228;-69
2023/05/24 06:19:20;;;;;;;11.15;5.15;;;;;;;25.52;32.18;99929.91;4275009;28;20325;-69
2023/05/24 06:21:48;;;;;;;19.08;4.95;;;;;;;26.42;31.26;99932.22;4266008;28;20258;-70
2023/05/24 06:24:21;;;;;;;16.65;4.57;;;;;;;26.71;30.52;99939.34;4263993;28;20228;-55
2023/05/24 06:26:49;;;;;;;13.02;5.28;;;;;;;26.24;32.01;99946.47;4267131;28;21891;-70
2023/05/24 06:29:18;;;;;;;13.75;4.60;;;;;;;25.60;32.14;99948.03;4283198;28;20230;-65
2023/05/24 06:31:46;;;;;;;9.40;5.30;;;;;;;24.13;34.80;99947.25;4286347;28;20230;-68
2023/05/24 06:34:16;;;;;;;12.52;4.93;;;;;;;23.65;36.18;99955.72;4269476;28;20263;-66
2023/05/24 06:36:45;;;;;;;12.93;4.93;;;;;;;23.56;36.36;99958.06;4278675;28;20241;-64
2023/05/24 06:39:13;;;;;;;10.80;4.95;;;;;;;24.23;34.86;99963.19;4261207;28;21158;-67
2023/05/24 06:41:41;;;;;;;9.85;4.80;;;;;;;24.52;33.80;99963.91;4294214;28;25022;-69
2023/05/24 06:44:08;;;;;;;12.27;5.03;;;;;;;24.79;33.65;99968.81;4290880;28;20238;-68
2023/05/24 06:46:34;;;;;;;13.35;4.45;;;;;;;26.34;31.33;99971.56;4269236;28;20221;-65
2023/05/24 06:49:02;;;;;;;10.68;5.00;;;;;;;24.76;33.90;99972.94;4269643;28;20590;-67
2023/05/24 06:51:29;;;;;;;16.33;5.07;;;;;;;24.95;33.60;99980.94;4274049;28;21254;-66
2023/05/24 06:53:56;;;;;;;19.43;5.00;;;;;;;24.74;33.97;99971.47;4278297;28;22140;-69
2023/05/24 06:56:23;;;;;;;11.40;5.07;;;;;;;25.54;33.01;99987.84;4260525;28;21741;-67
2023/05/24 06:58:49;;;;;;;12.77;5.05;;;;;;;26.15;32.10;99979.44;4282413;28;21028;-68
2023/05/24 07:01:17;;;;;;;15.50;5.13;;;;;;;25.56;34.13;99977.34;4279890;28;21156;-71
2023/05/24 07:03:44;;;;;;;13.80;4.90;;;;;;;25.88;32.65;99985.75;4273355;28;20275;-71
2023/05/24 07:06:12;;;;;;;16.98;5.22;;;;;;;26.08;32.06;99979.63;4268850;28;21840;-68
2023/05/24 07:08:43;;;;;;;11.50;5.93;;;;;;;25.93;32.28;99982.22;4276421;28;20684;-68
2023/05/24 07:11:09;;;;;;;12.93;5.00;;;;;;;26.45;31.62;99983.56;4274132;28;20226;-69
2023/05/24 07:13:36;;;;;;;9.80;4.63;;;;;;;27.87;29.83;99974.66;4261038;28;21263;-66
2023/05/24 07:16:03;;;;;;;13.30;4.72;;;;;;;27.92;29.73;99984.97;4267519;28;20249;-66
2023/05/24 07:18:29;;;;;;;14.80;4.57;;;;;;;28.86;28.55;99993.16;4268733;28;20295;-69
2023/05/24 07:20:56;;;;;;;12.15;4.30;;;;;;;29.23;27.12;99997.53;4273868;28;20233;-71
2023/05/24 07:23:23;;;;;;;12.95;4.38;;;;;;;27.12;29.94;99988.78;4278445;28;21307;-68
2023/05/24 07:25:50;;;;;;;19.48;5.35;;;;;;;25.11;34.02;99993.09;4291669;28;21948;-69
2023/05/24 07:28:18;;;;;;;15.05;5.32;;;;;;;25.62;32.27;100002.13;4278567;28;24094;-69
2023/05/24 07:30:45;;;;;;;10.57;4.80;;;;;;;25.19;34.31;100013.97;4275586;28;21131;-67
2023/05/24 07:33:12;;;;;;;8.85;4.78;;;;;;;25.99;32.32;100006.13;4272478;28;20240;-67
2023/05/24 07:35:39;;;;;;;10.35;4.60;;;;;;;26.21;32.22;100011.66;4270191;28;25443;-69
2023/05/24 07:38:06;;;;;;;7.35;4.57;;;;;;;26.14;31.86;100011.03;4265238;28;20835;-67
2023/05/24 07:40:33;;;;;;;11.40;4.65;;;;;;;25.34;33.71;100016.94;4273047;28;21129;-69
2023/05/24 07:43:00;;;;;;;15.65;4.65;;;;;;;25.25;34.42;100022.09;4274682;28;20569;-69
2023/05/24 07:45:30;;;;;;;11.32;5.35;;;;;;;25.66;33.01;100020.97;4261120;28;21619;-68
2023/05/24 07:47:56;;;;;;;12.35;4.82;;;;;;;25.63;33.60;100030.66;4274933;28;21209;-67
2023/05/24 07:50:23;;;;;;;13.35;4.88;;;;;;;25.97;32.55;100024.97;4276619;28;21785;-65
2023/05/24 07:52:50;;;;;;;11.32;5.03;;;;;;;26.17;32.78;100023.53;4261639;28;20587;-66
2023/05/24 07:57:13;;;;;;;15.55;4.90;;;;;;;26.69;31.50;100031.25;4292344;27;20602;-67
2023/05/24 07:59:40;;;;;;;15.18;4.50;;;;;;;27.27;30.51;100022.22;4257589;28;20834;-66
2023/05/24 08:02:10;;;;;;;11.53;4.70;;;;;;;26.63;31.75;100031.44;4248395;28;20232;-67
2023/05/24 08:04:37;;;;;;;15.68;5.18;;;;;;;25.63;33.48;100033.44;4271894;28;20229;-64
2023/05/24 08:07:04;;;;;;;12.20;5.07;;;;;;;25.73;33.29;100038.25;4261456;28;20243;-67
2023/05/24 08:11:15;;;;;;;15.93;5.33;;;;;;;24.85;34.84;100034.25;4265136;28;20669;-66
2023/05/24 08:14:08;;;;;;;17.65;4.85;;;;;;;25.81;33.33;100042.53;4264275;27;20556;-69
2023/05/24 08:16:35;;;;;;;16.15;5.53;;;;;;;25.69;34.79;100045.44;4215507;28;21135;-65
2023/05/24 08:48:28;;;;;;;11.98;4.85;;;;;;;24.65;36.51;100052.16;4276543;27;20526;-63
2023/05/24 08:50:56;;;;;;;14.47;4.93;;;;;;;25.62;35.28;100065.00;4237728;28;20327;-52
2023/05/24 08:53:23;;;;;;;17.40;5.28;;;;;;;25.85;34.44;100063.94;4246213;28;20247;-68
2023/05/24 08:55:54;;;;;;;11.48;5.22;;;;;;;26.78;33.35;100064.94;4269632;28;20233;-67
2023/05/24 08:58:21;;;;;;;12.20;5.28;;;;;;;26.72;32.89;100065.97;4214079;28;20409;-67
2023/05/24 09:00:48;;;;;;;13.55;5.07;;;;;;;26.72;32.83;100058.50;4229504;28;20227;-68
2023/05/24 09:03:15;;;;;;;20.95;5.95;;;;;;;25.18;35.97;100065.78;4225109;28;22873;-68
2023/05/24 09:05:43;;;;;;;12.77;4.57;;;;;;;25.54;34.96;100066.31;4218268;28;20230;-66
2023/05/24 09:08:12;;;;;;;13.05;4.82;;;;;;;25.59;35.65;100065.53;4218900;28;21656;-67
2023/05/24 09:10:39;;;;;;;9.93;5.18;;;;;;;25.40;34.94;100071.38;4227416;28;20307;-69
2023/05/24 09:13:22;;;;;;;17.65;5.13;;;;;;;24.89;36.45;100074.16;4221800;28;23829;-66
2023/05/24 09:15:49;;;;;;;22.33;5.78;;;;;;;24.78;37.29;100075.09;4201525;28;20382;-65
2023/05/24 09:18:15;;;;;;;15.93;5.03;;;;;;;25.35;37.43;100078.72;4218165;28;25407;-67
2023/05/24 09:20:42;;;;;;;17.07;5.27;;;;;;;24.94;37.23;100082.56;4201834;28;21110;-67
2023/05/24 09:23:10;;;;;;;13.77;5.33;;;;;;;23.97;39.30;100082.44;4199257;28;20237;-67
2023/05/24 09:25:42;;;;;;;20.13;6.30;;;;;;;23.56;40.10;100093.44;4215412;28;20226;-66
2023/05/24 09:28:12;;;;;;;20.17;5.40;;;;;;;23.66;39.91;100091.97;4219191;28;20236;-70
2023/05/24 09:30:38;;;;;;;18.50;5.72;;;;;;;23.60;40.71;100092.94;4191075;28;20229;-69
2023/05/24 09:33:07;;;;;;;12.00;4.83;;;;;;;24.35;39.06;100094.78;4205221;28;20235;-69
2023/05/24 09:35:35;;;;;;;13.70;5.20;;;;;;;24.51;37.58;100092.28;4205665;28;20230;-68
2023/05/24 09:38:02;;;;;;;15.05;4.45;;;;;;;25.03;36.23;100090.47;4201559;28;21484;-70
2023/05/24 09:40:29;;;;;;;19.57;5.20;;;;;;;24.12;38.66;100092.94;4199815;28;20306;-69
2023/05/24 09:43:07;;;;;;;16.50;4.95;;;;;;;24.30;40.28;100102.97;4205839;28;20686;-67
2023/05/24 09:45:45;;;;;;;19.92;5.10;;;;;;;23.47;40.55;100110.59;4228158;28;20236;-69
2023/05/24 09:48:13;;;;;;;22.23;5.57;;;;;;;24.44;39.67;100108.19;4215896;28;20236;-50
2023/05/24 09:50:39;;;;;;;15.30;5.72;;;;;;;24.34;40.55;100103.31;4208673;28;20708;-50
2023/05/24 09:53:07;;;;;;;12.32;5.28;;;;;;;24.73;40.02;100106.28;4213348;28;22419;-58
2023/05/24 09:55:36;;;;;;;13.20;5.73;;;;;;;24.34;42.12;100111.63;4194585;28;22418;-68
2023/05/24 09:58:07;;;;;;;14.88;5.32;;;;;;;24.01;41.78;100111.25;4228996;28;22567;-66
2023/05/24 10:00:38;;;;;;;13.48;5.75;;;;;;;23.41;43.20;100110.50;4194277;28;20924;-68
2023/05/24 10:03:07;;;;;;;17.60;5.53;;;;;;;22.97;43.51;100115.47;4209512;28;20288;-67
2023/05/24 10:05:34;;;;;;;13.25;5.70;;;;;;;23.08;43.11;100116.56;4194786;28;21169;-66
2023/05/24 10:08:03;;;;;;;25.60;5.50;;;;;;;23.34;42.99;100120.00;4230512;28;20251;-67
2023/05/24 10:10:32;;;;;;;17.67;5.97;;;;;;;23.22;43.19;100109.75;4201850;28;21218;-72
2023/05/24 10:13:00;;;;;;;18.83;6.90;;;;;;;23.65;42.49;100115.13;4188950;28;20301;-71
2023/05/24 10:15:28;;;;;;;14.20;5.03;;;;;;;23.45;42.21;100123.81;4215612;28;20558;-62
2023/05/24 10:17:55;;;;;;;14.93;5.70;;;;;;;22.63;43.67;100120.66;4214483;28;21499;-67
2023/05/24 10:20:23;;;;;;;17.83;5.40;;;;;;;23.04;43.16;100126.38;4172593;28;20715;-64
2023/05/24 10:23:00;;;;;;;20.00;6.23;;;;;;;23.17;42.35;100125.31;4198845;28;20233;-64
2023/05/24 10:25:28;;;;;;;14.57;6.13;;;;;;;23.14;42.88;100125.81;4203913;28;21657;-65
2023/05/24 10:27:58;;;;;;;20.25;6.05;;;;;;;23.65;41.85;100121.53;4204741;28;20280;-65
2023/05/24 10:30:33;;;;;;;21.50;5.80;;;;;;;23.31;41.96;100121.28;4205963;28;22221;-65
2023/05/24 10:33:00;;;;;;;17.80;6.30;;;;;;;22.98;42.52;100122.69;4216726;28;20298;-66
2023/05/24 10:35:28;;;;;;;23.57;5.73;;;;;;;23.00;42.52;100114.97;4188115;28;23551;-66
2023/05/24 10:37:56;;;;;;;12.13;6.20;;;;;;;23.19;42.20;100118.50;4156370;28;20225;-64
2023/05/24 10:40:26;;;;;;;15.07;6.00;;;;;;;22.82;43.01;100121.44;4178895;28;20238;-64
2023/05/24 10:42:53;;;;;;;14.17;5.93;;;;;;;22.96;43.87;100127.59;4210458;28;20340;-66
2023/05/24 10:45:26;;;;;;;15.73;6.10;;;;;;;22.79;42.42;100128.28;4195377;28;20415;-66
2023/05/24 10:47:53;;;;;;;13.93;5.57;;;;;;;22.74;43.34;100128.16;4204212;28;20236;-65
2023/05/24 10:50:21;;;;;;;13.97;5.97;;;;;;;22.69;43.39;100128.03;4203521;28;20229;-65
2023/05/24 10:52:48;;;;;;;16.37;5.83;;;;;;;22.77;44.32;100124.06;4201278;28;20378;-67
2023/05/24 10:55:14;;;;;;;21.93;6.53;;;;;;;22.86;43.49;100139.22;4187296;28;20222;-66
2023/05/24 10:57:41;;;;;;;15.30;5.83;;;;;;;22.59;44.12;100131.31;4193871;28;20245;-66
2023/05/24 11:00:20;;;;;;;13.70;6.20;;;;;;;22.94;43.20;100136.13;4183321;28;20701;-64
2023/05/24 11:03:10;;;;;;;19.23;6.07;;;;;;;23.39;43.01;100139.44;4202295;28;20374;-68
2023/05/24 11:05:57;;;;;;;11.03;6.20;;;;;;;23.20;42.63;100144.22;4194442;28;20248;-65
2023/05/24 11:08:35;;;;;;;16.88;5.90;;;;;;;23.21;43.03;100138.44;4188251;28;25206;-65
2023/05/24 11:11:12;;;;;;;15.70;5.88;;;;;;;23.61;41.97;100144.34;4178101;28;20238;-66
2023/05/24 11:13:42;;;;;;;17.58;6.47;;;;;;;23.34;42.51;100140.16;4179410;28;20653;-65
2023/05/24 11:16:35;;;;;;;14.23;6.20;;;;;;;23.35;41.90;100141.84;4185175;28;20230;-65
2023/05/24 11:19:16;;;;;;;11.98;6.10;;;;;;;23.47;42.60;100152.03;4193520;28;20233;-68
2023/05/24 11:21:44;;;;;;;13.20;6.13;;;;;;;23.36;44.49;100145.44;4190765;28;20236;-65
2023/05/24 11:24:11;;;;;;;12.85;5.35;;;;;;;23.25;43.15;100141.56;4211121;28;20530;-64
2023/05/24 11:26:38;;;;;;;19.48;5.78;;;;;;;23.70;43.26;100145.66;4168212;28;20469;-68
2023/05/24 11:29:06;;;;;;;12.93;5.85;;;;;;;23.47;42.19;100140.97;4206226;28;20247;-64
2023/05/24 11:31:33;;;;;;;17.02;5.85;;;;;;;23.47;42.22;100139.06;4204718;28;20236;-68
2023/05/24 11:34:05;;;;;;;14.35;5.65;;;;;;;23.57;42.42;100147.59;4203611;28;20415;-68
2023/05/24 11:36:32;;;;;;;17.85;6.47;;;;;;;23.53;43.72;100142.78;4186041;28;22352;-67
2023/05/24 11:39:00;;;;;;;14.30;6.10;;;;;;;23.85;42.81;100143.25;4217033;28;20239;-67
2023/05/24 11:41:27;;;;;;;13.93;6.10;;;;;;;23.79;42.37;100146.13;4201103;28;20228;-68
2023/05/24 11:43:54;;;;;;;13.50;5.70;;;;;;;24.02;41.64;100140.59;4203256;28;20315;-69
2023/05/24 11:46:21;;;;;;;9.73;5.50;;;;;;;23.78;42.61;100142.53;4235685;28;22223;-74
2023/05/24 11:48:56;;;;;;;16.60;6.30;;;;;;;24.44;42.00;100138.63;4215709;28;20651;-62
2023/05/24 11:51:27;;;;;;;13.52;5.60;;;;;;;24.77;40.98;100126.00;4187090;28;21484;-69
2023/05/24 11:53:54;;;;;;;12.35;5.40;;;;;;;24.90;41.12;100133.97;4227652;28;21739;-67
2023/05/24 11:56:22;;;;;;;14.55;5.80;;;;;;;25.26;39.41;100126.28;4207556;28;22886;-69
2023/05/24 11:58:52;;;;;;;12.43;5.20;;;;;;;25.70;39.35;100127.50;4203379;28;20243;-70
2023/05/24 12:01:26;;;;;;;14.13;6.22;;;;;;;25.24;40.08;100122.94;4202194;28;22731;-63
2023/05/24 12:03:53;;;;;;;10.17;6.03;;;;;;;25.40;38.69;100123.19;4203055;28;20244;-70